Terminal Aerodrome Forecast
Issued by NWS

Home | Current Version | Previous Version | Text Only | Print | Product List | Glossary On
Versions: 1 2 3 4 5 6 7 8 9 10 11 12 13 14 15 16 17 18 19 20 21 22 23 24 25 26 27 28
000
FTUS43 KMKX 271725
TAFENW
TAF
KENW 271725Z 2718/2818 28017G27KT P6SM SCT045
     FM272300 29009KT P6SM VCSH SCT025 OVC035
     FM280300 29005KT P6SM -SHRA OVC020
     FM280800 31005KT P6SM -SHRA OVC008
     FM281400 33009KT 6SM -SHRA OVC015
     FM281700 02012KT P6SM -SHRA OVC025=

USA.gov is the U.S. government's official web portal to all federal, state and local government web resources and services.